Time;durP1;ratioP1;P1;durP2;ratioP2;P2;SDS_P1;SDS_P2;PMS_P1;PMS_P2;Temp;Humidity;BMP_temperature;BMP_pressure;BME280_temperature;BME280_humidity;BME280_pressure;Samples;Min_cycle;Max_cycle;Signal;HPM_P1;HPM_P2
2021/05/30 00:02:11;;;;;;;11.52;9.15;;;16.50;90.10;;;;;;5054957;28;20533;-73
2021/05/30 00:04:37;;;;;;;11.18;9.30;;;16.50;90.20;;;;;;5054634;28;20025;-73
2021/05/30 00:07:04;;;;;;;14.77;9.48;;;16.40;90.30;;;;;;5054479;28;20070;-74
2021/05/30 00:09:30;;;;;;;10.43;9.32;;;16.40;90.40;;;;;;5054322;28;20108;-73
2021/05/30 00:11:55;;;;;;;13.73;9.77;;;16.30;90.40;;;;;;5054421;28;20100;-73
2021/05/30 00:14:22;;;;;;;14.35;9.55;;;16.30;90.50;;;;;;5053019;28;20049;-73
2021/05/30 00:16:48;;;;;;;10.73;9.10;;;16.30;90.60;;;;;;5054549;28;20032;-72
2021/05/30 00:19:14;;;;;;;16.25;9.05;;;16.20;90.70;;;;;;5053449;28;20503;-73
2021/05/30 00:21:40;;;;;;;10.52;9.05;;;16.20;90.80;;;;;;5053225;28;20025;-74
2021/05/30 00:24:07;;;;;;;11.20;10.02;;;16.20;90.80;;;;;;5054392;28;20029;-73
2021/05/30 00:26:33;;;;;;;14.48;9.98;;;16.10;90.90;;;;;;5054226;28;20515;-73
2021/05/30 00:28:58;;;;;;;12.48;10.23;;;16.10;90.90;;;;;;5054073;28;20041;-73
2021/05/30 00:31:24;;;;;;;12.35;10.10;;;16.00;91.00;;;;;;5054376;28;20037;-73
2021/05/30 00:33:50;;;;;;;13.70;10.63;;;16.00;91.10;;;;;;5052927;28;20043;-73
2021/05/30 00:36:16;;;;;;;13.45;10.13;;;16.00;91.30;;;;;;5054194;28;20025;-73
2021/05/30 00:38:42;;;;;;;16.55;10.02;;;15.90;91.30;;;;;;5054268;28;20078;-73
2021/05/30 00:41:08;;;;;;;11.25;9.27;;;15.90;91.40;;;;;;5054177;28;20033;-73
2021/05/30 00:43:47;;;;;;;12.98;10.10;;;15.90;91.40;;;;;;5052964;28;20033;-73
2021/05/30 00:46:13;;;;;;;14.77;10.13;;;15.90;91.50;;;;;;5054163;28;20025;-73
2021/05/30 00:48:39;;;;;;;12.68;9.85;;;15.90;91.60;;;;;;5054183;28;20052;-73
2021/05/30 00:51:05;;;;;;;13.15;10.43;;;15.80;91.60;;;;;;5054125;28;20464;-73
2021/05/30 00:53:33;;;;;;;15.98;9.65;;;15.80;91.80;;;;;;5052859;28;20137;-73
2021/05/30 00:55:59;;;;;;;11.13;9.90;;;15.90;91.90;;;;;;5053737;28;20384;-73
2021/05/30 00:58:25;;;;;;;14.05;10.13;;;15.80;91.80;;;;;;5053739;28;20032;-78
2021/05/30 01:00:52;;;;;;;11.18;9.05;;;15.80;91.80;;;;;;5054144;28;20021;-78
2021/05/30 01:03:18;;;;;;;11.27;10.02;;;15.80;91.90;;;;;;5054105;28;20151;-77
2021/05/30 01:05:46;;;;;;;13.23;9.48;;;15.80;91.80;;;;;;5054412;28;20092;-77
2021/05/30 01:08:12;;;;;;;12.40;9.60;;;15.80;91.80;;;;;;5054349;28;20112;-77
2021/05/30 01:10:43;;;;;;;11.50;10.30;;;15.70;91.80;;;;;;5053884;28;20146;-76
2021/05/30 01:13:11;;;;;;;13.77;10.23;;;15.70;91.90;;;;;;5054146;28;20100;-76
2021/05/30 01:15:38;;;;;;;14.50;10.73;;;15.70;91.90;;;;;;5053732;28;20266;-76
2021/05/30 01:18:04;;;;;;;11.88;10.43;;;15.60;92.00;;;;;;5053628;28;20103;-76
2021/05/30 01:20:30;;;;;;;15.48;10.50;;;15.60;92.10;;;;;;5053752;28;20104;-76
2021/05/30 01:22:56;;;;;;;15.32;11.40;;;15.50;92.10;;;;;;5053454;28;20103;-74
2021/05/30 01:25:26;;;;;;;16.25;11.23;;;15.50;92.20;;;;;;5053208;28;20483;-74
2021/05/30 01:27:52;;;;;;;13.40;11.05;;;15.50;92.20;;;;;;5052986;28;20048;-73
2021/05/30 01:30:20;;;;;;;11.98;10.77;;;15.50;92.30;;;;;;5052127;28;20029;-73
2021/05/30 01:32:48;;;;;;;13.90;11.20;;;15.40;92.30;;;;;;5052013;28;20119;-74
2021/05/30 01:35:14;;;;;;;22.13;11.82;;;15.40;92.40;;;;;;5053578;28;20028;-73
2021/05/30 01:37:41;;;;;;;13.38;10.30;;;15.40;92.40;;;;;;5053366;28;20013;-73
2021/05/30 01:40:07;;;;;;;11.18;9.77;;;15.40;92.50;;;;;;5053317;28;20104;-73
2021/05/30 01:42:34;;;;;;;12.57;10.30;;;15.40;92.50;;;;;;5053030;28;20075;-73
2021/05/30 01:44:59;;;;;;;13.50;10.68;;;15.30;92.60;;;;;;5053058;28;20021;-73
2021/05/30 01:47:26;;;;;;;12.63;10.95;;;15.30;92.60;;;;;;5051590;28;20035;-74
2021/05/30 01:49:52;;;;;;;12.30;10.52;;;15.30;92.70;;;;;;5052629;28;20467;-73
2021/05/30 01:52:18;;;;;;;13.32;10.35;;;15.30;92.80;;;;;;5052687;28;20120;-73
2021/05/30 01:54:48;;;;;;;12.45;9.98;;;15.30;92.80;;;;;;5052665;28;20017;-74
2021/05/30 01:57:15;;;;;;;16.42;10.63;;;15.30;92.80;;;;;;5052639;28;20108;-74
2021/05/30 01:59:43;;;;;;;11.30;10.20;;;15.30;92.80;;;;;;5052525;28;20053;-74
2021/05/30 02:02:10;;;;;;;14.68;9.88;;;15.30;92.90;;;;;;5051321;28;20079;-74
2021/05/30 02:04:40;;;;;;;10.80;9.80;;;15.30;93.10;;;;;;5051249;28;20422;-74
2021/05/30 02:07:07;;;;;;;11.48;9.73;;;15.30;93.30;;;;;;5051709;28;20112;-74
2021/05/30 02:09:38;;;;;;;10.13;9.13;;;15.40;93.60;;;;;;5052574;28;20040;-73
2021/05/30 02:12:05;;;;;;;12.23;9.00;;;15.50;93.50;;;;;;5052647;28;20104;-74
2021/05/30 02:14:31;;;;;;;10.77;8.27;;;15.50;93.30;;;;;;5053003;28;20036;-74
2021/05/30 02:16:57;;;;;;;14.70;8.57;;;15.60;93.10;;;;;;5052654;28;20025;-74
2021/05/30 02:19:23;;;;;;;9.05;8.15;;;15.70;93.00;;;;;;5052180;28;20096;-74
2021/05/30 02:21:52;;;;;;;12.55;7.70;;;15.80;92.90;;;;;;5051055;28;20471;-74
2021/05/30 02:24:20;;;;;;;11.15;8.13;;;15.80;92.80;;;;;;5050931;28;20029;-74
2021/05/30 02:26:46;;;;;;;9.18;6.82;;;15.80;92.70;;;;;;5052023;28;20017;-74
2021/05/30 02:29:33;;;;;;;10.65;7.30;;;15.90;92.70;;;;;;5051747;28;20052;-72
2021/05/30 02:32:00;;;;;;;10.40;7.30;;;16.10;92.60;;;;;;5050916;28;20472;-73
2021/05/30 02:34:26;;;;;;;8.52;6.90;;;16.20;92.50;;;;;;5051869;28;20029;-74
2021/05/30 02:36:52;;;;;;;8.85;7.53;;;16.30;92.10;;;;;;5051973;28;20025;-73
2021/05/30 02:39:17;;;;;;;8.40;7.15;;;16.40;91.80;;;;;;5051895;28;20032;-74
2021/05/30 02:41:43;;;;;;;7.35;6.65;;;16.40;91.60;;;;;;5051888;28;20025;-74
2021/05/30 02:44:09;;;;;;;9.13;6.88;;;16.40;91.30;;;;;;5050607;28;20017;-73
2021/05/30 02:46:35;;;;;;;9.55;7.35;;;16.40;91.10;;;;;;5050698;28;20028;-74
2021/05/30 02:49:01;;;;;;;11.35;7.05;;;16.50;91.00;;;;;;5050685;28;20498;-73
2021/05/30 02:51:26;;;;;;;9.68;7.05;;;16.50;90.90;;;;;;5051883;28;20090;-73
2021/05/30 02:53:52;;;;;;;7.32;6.55;;;16.60;90.80;;;;;;5052746;28;20028;-74
2021/05/30 02:56:18;;;;;;;8.98;6.97;;;16.70;90.80;;;;;;5051059;28;20025;-73
2021/05/30 02:58:43;;;;;;;7.78;5.93;;;17.00;91.90;;;;;;5051807;28;20372;-73
2021/05/30 03:01:09;;;;;;;8.35;5.40;;;17.50;91.60;;;;;;5051694;28;20131;-73
2021/05/30 03:03:35;;;;;;;9.85;5.13;;;18.70;92.40;;;;;;5050475;28;20079;-73
2021/05/30 03:06:00;;;;;;;9.90;5.70;;;20.30;90.90;;;;;;5051368;28;20053;-73
2021/05/30 03:08:26;;;;;;;8.10;4.50;;;21.80;86.10;;;;;;5051768;28;20438;-74
2021/05/30 03:10:52;;;;;;;8.27;4.85;;;23.20;80.10;;;;;;5051540;28;20023;-74
2021/05/30 03:13:17;;;;;;;6.10;4.57;;;24.60;74.70;;;;;;5051662;28;20386;-74
2021/05/30 03:15:43;;;;;;;5.57;4.28;;;25.90;70.00;;;;;;5051488;28;20017;-74
2021/05/30 03:18:09;;;;;;;6.47;4.03;;;27.10;66.10;;;;;;5052216;28;20025;-74
2021/05/30 03:20:35;;;;;;;5.10;4.18;;;28.10;62.90;;;;;;5055255;28;20032;-74
2021/05/30 03:23:01;;;;;;;6.95;4.50;;;29.10;59.80;;;;;;5054012;28;20021;-74
2021/05/30 03:25:27;;;;;;;7.22;4.18;;;30.00;57.20;;;;;;5055264;28;20064;-73
2021/05/30 03:27:53;;;;;;;5.93;3.72;;;30.80;55.20;;;;;;5055298;28;20460;-74
2021/05/30 03:30:19;;;;;;;7.47;3.80;;;31.50;53.40;;;;;;5055562;28;20033;-74
2021/05/30 03:32:44;;;;;;;4.55;3.88;;;32.20;51.80;;;;;;5055346;28;20048;-74
2021/05/30 03:35:11;;;;;;;9.07;3.85;;;32.90;50.20;;;;;;5055339;28;20020;-74
2021/05/30 03:37:36;;;;;;;5.90;3.65;;;33.40;48.90;;;;;;5055462;28;20025;-75
2021/05/30 03:40:10;;;;;;;5.28;4.00;;;33.90;47.60;;;;;;5055529;28;20036;-76
2021/05/30 03:42:37;;;;;;;4.60;4.20;;;34.40;46.60;;;;;;5055057;28;20032;-76
2021/05/30 03:45:04;;;;;;;4.10;3.70;;;34.80;45.50;;;;;;5054021;28;20116;-79
2021/05/30 03:47:30;;;;;;;4.20;3.90;;;34.90;44.50;;;;;;5055919;28;20483;-79
2021/05/30 03:49:55;;;;;;;5.45;4.20;;;35.00;44.20;;;;;;5055194;28;20029;-79
2021/05/30 03:52:21;;;;;;;5.00;4.10;;;35.10;43.80;;;;;;5056023;28;20088;-79
2021/05/30 03:54:47;;;;;;;6.13;4.22;;;35.20;43.50;;;;;;5054497;28;20017;-77
2021/05/30 03:57:15;;;;;;;5.88;4.05;;;35.10;43.10;;;;;;5053823;28;20017;-79
2021/05/30 03:59:40;;;;;;;6.40;3.90;;;34.80;42.90;;;;;;5055848;28;20111;-78
2021/05/30 04:02:06;;;;;;;6.32;3.78;;;34.50;43.00;;;;;;5057683;28;20115;-78
2021/05/30 04:04:32;;;;;;;6.10;3.75;;;34.60;43.20;;;;;;5056072;28;20475;-78
2021/05/30 04:06:58;;;;;;;4.93;3.75;;;35.00;42.80;;;;;;5054735;28;20036;-75
2021/05/30 04:09:24;;;;;;;6.53;4.07;;;35.60;42.50;;;;;;5054726;28;20452;-75
2021/05/30 04:11:50;;;;;;;7.72;3.78;;;36.00;41.80;;;;;;5053259;28;20043;-75
2021/05/30 04:14:15;;;;;;;6.07;3.05;;;36.30;41.30;;;;;;5054836;28;20095;-76
2021/05/30 04:16:41;;;;;;;30.27;6.35;;;36.80;40.70;;;;;;5054218;28;20108;-75
2021/05/30 04:19:07;;;;;;;6.30;3.45;;;37.20;40.10;;;;;;5054238;28;20048;-75
2021/05/30 04:21:32;;;;;;;5.78;4.03;;;37.60;39.60;;;;;;5053067;28;20033;-75
2021/05/30 04:23:58;;;;;;;10.73;4.43;;;38.10;39.10;;;;;;5054226;28;20025;-75
2021/05/30 04:26:26;;;;;;;13.68;4.50;;;38.60;38.70;;;;;;5053929;28;20025;-75
2021/05/30 04:28:52;;;;;;;5.00;3.30;;;38.80;37.90;;;;;;5053809;28;20041;-75
2021/05/30 04:31:18;;;;;;;2.92;2.72;;;38.50;37.40;;;;;;5053300;28;20433;-75
2021/05/30 04:33:43;;;;;;;7.47;3.15;;;38.00;37.60;;;;;;5054130;28;20089;-75
2021/05/30 04:36:09;;;;;;;5.13;3.10;;;38.10;37.60;;;;;;5053860;28;20040;-75
2021/05/30 04:38:35;;;;;;;5.45;2.97;;;37.40;37.30;;;;;;5054205;28;20036;-75
2021/05/30 04:41:01;;;;;;;5.85;3.10;;;37.00;38.10;;;;;;5052662;28;20021;-75
2021/05/30 04:43:26;;;;;;;6.03;3.20;;;37.20;38.30;;;;;;5054082;28;20386;-76
2021/05/30 04:45:52;;;;;;;7.57;2.90;;;37.00;37.80;;;;;;5054261;28;20033;-75
2021/05/30 04:48:18;;;;;;;11.52;3.55;;;36.50;38.10;;;;;;5054175;28;20537;-76
2021/05/30 04:51:04;;;;;;;8.32;4.25;;;36.20;38.30;;;;;;5052448;28;20032;-77
2021/05/30 04:53:29;;;;;;;5.47;3.20;;;36.00;38.40;;;;;;5054595;28;20040;-79
2021/05/30 04:55:55;;;;;;;6.32;2.88;;;35.40;38.80;;;;;;5054046;28;20025;-79
2021/05/30 04:58:20;;;;;;;5.28;3.15;;;35.50;39.20;;;;;;5053996;28;20025;-79
2021/05/30 05:00:46;;;;;;;5.55;2.92;;;35.50;39.30;;;;;;5054183;28;20104;-80
2021/05/30 05:03:12;;;;;;;4.03;2.92;;;35.90;39.40;;;;;;5054038;28;20375;-79
2021/05/30 05:05:37;;;;;;;10.20;3.33;;;36.20;38.60;;;;;;5053522;28;20029;-79
2021/05/30 05:08:03;;;;;;;5.15;2.95;;;36.20;38.30;;;;;;5053942;28;20026;-79
2021/05/30 05:10:29;;;;;;;8.07;3.05;;;35.40;37.80;;;;;;5053887;28;20029;-80
2021/05/30 05:12:54;;;;;;;2.47;2.35;;;34.70;38.60;;;;;;5053946;28;20075;-79
2021/05/30 05:15:20;;;;;;;2.70;2.50;;;34.90;39.10;;;;;;5053667;28;20475;-79
2021/05/30 05:17:46;;;;;;;3.47;2.17;;;35.60;38.80;;;;;;5052049;28;20075;-78
2021/05/30 05:20:12;;;;;;;6.00;2.40;;;35.60;38.00;;;;;;5052865;28;20060;-78
2021/05/30 05:22:37;;;;;;;4.63;2.50;;;35.40;37.80;;;;;;5053827;28;20379;-77
2021/05/30 05:25:04;;;;;;;6.63;2.45;;;35.40;38.20;;;;;;5053309;28;20061;-78
2021/05/30 05:27:29;;;;;;;3.85;2.28;;;35.30;38.20;;;;;;5053194;28;20049;-79
2021/05/30 05:29:55;;;;;;;2.72;2.38;;;35.80;38.20;;;;;;5053137;28;20036;-79
2021/05/30 05:32:21;;;;;;;3.72;2.17;;;36.50;37.90;;;;;;5052969;28;20065;-82
2021/05/30 05:34:47;;;;;;;6.15;2.47;;;37.30;37.30;;;;;;5053317;28;20455;-83
2021/05/30 05:37:12;;;;;;;2.90;2.70;;;37.60;36.60;;;;;;5052787;28;20025;-80
2021/05/30 05:39:38;;;;;;;2.33;2.10;;;37.30;35.90;;;;;;5052781;28;20032;-81
2021/05/30 05:42:04;;;;;;;3.88;2.10;;;36.60;35.70;;;;;;5052774;28;20372;-81
2021/05/30 05:44:30;;;;;;;5.55;2.08;;;35.50;35.90;;;;;;5052990;28;20021;-80
2021/05/30 05:46:56;;;;;;;5.88;3.00;;;34.40;36.60;;;;;;5051726;28;20024;-81
2021/05/30 05:49:21;;;;;;;3.63;2.10;;;33.40;37.70;;;;;;5052695;28;20090;-80
2021/05/30 05:51:47;;;;;;;3.83;2.60;;;32.80;38.50;;;;;;5052909;28;20025;-81
2021/05/30 05:54:12;;;;;;;2.70;2.25;;;32.30;39.30;;;;;;5053950;28;20028;-80
2021/05/30 05:56:38;;;;;;;5.40;2.60;;;31.90;39.80;;;;;;5053686;28;20025;-80
2021/05/30 05:59:04;;;;;;;3.80;2.30;;;31.30;40.30;;;;;;5053623;28;20420;-81
2021/05/30 06:01:30;;;;;;;6.25;2.95;;;30.80;41.00;;;;;;5053938;28;20104;-80
2021/05/30 06:03:55;;;;;;;2.72;2.50;;;30.60;41.60;;;;;;5052513;28;20029;-80
2021/05/30 06:06:21;;;;;;;3.60;2.97;;;30.90;42.30;;;;;;5051534;28;20028;-80
2021/05/30 06:08:47;;;;;;;5.93;3.35;;;32.00;42.30;;;;;;5052622;28;20059;-76
2021/05/30 06:11:12;;;;;;;2.58;2.22;;;33.30;41.30;;;;;;5050613;28;20025;-76
2021/05/30 06:13:38;;;;;;;6.82;2.60;;;34.30;39.80;;;;;;5051933;28;20416;-76
2021/05/30 06:16:06;;;;;;;5.57;2.28;;;35.50;39.10;;;;;;5051923;28;20074;-76
2021/05/30 06:18:33;;;;;;;5.32;2.40;;;36.50;38.10;;;;;;5051574;28;20017;-77
2021/05/30 06:20:59;;;;;;;3.22;2.20;;;37.50;37.10;;;;;;5050810;28;20025;-76
2021/05/30 06:23:24;;;;;;;3.80;2.30;;;37.80;36.10;;;;;;5051549;28;20439;-77
2021/05/30 06:25:52;;;;;;;7.13;3.03;;;37.60;35.70;;;;;;5050924;28;20028;-75
2021/05/30 06:28:18;;;;;;;5.45;2.30;;;36.70;35.80;;;;;;5050700;28;20170;-77
2021/05/30 06:30:44;;;;;;;7.97;2.95;;;35.60;36.20;;;;;;5034552;28;20123;-78
2021/05/30 06:33:10;;;;;;;3.60;2.70;;;34.60;37.00;;;;;;5052091;28;20033;-81
2021/05/30 06:35:39;;;;;;;5.22;3.00;;;33.80;38.10;;;;;;5052506;28;20029;-77
2021/05/30 06:38:05;;;;;;;10.63;2.70;;;33.80;39.10;;;;;;5050950;28;20418;-78
2021/05/30 06:40:31;;;;;;;7.25;2.55;;;34.30;39.00;;;;;;5052041;28;20021;-78
2021/05/30 06:42:57;;;;;;;7.55;3.63;;;34.10;38.40;;;;;;5051830;28;20100;-78
2021/05/30 06:45:23;;;;;;;3.38;2.60;;;34.10;39.10;;;;;;5051266;28;20113;-78
2021/05/30 06:47:49;;;;;;;5.53;2.75;;;33.70;38.90;;;;;;5050206;28;20036;-78
2021/05/30 06:50:15;;;;;;;2.15;2.05;;;33.50;39.50;;;;;;5051870;28;20047;-77
2021/05/30 06:52:41;;;;;;;4.55;2.90;;;33.50;39.20;;;;;;5050843;28;20028;-77
2021/05/30 06:55:07;;;;;;;7.88;3.17;;;33.30;39.10;;;;;;5051228;28;20384;-78
2021/05/30 06:57:33;;;;;;;2.67;2.47;;;33.40;39.80;;;;;;5051411;28;20067;-78
2021/05/30 06:59:59;;;;;;;5.63;3.20;;;34.00;39.90;;;;;;5051306;28;20025;-78
2021/05/30 07:02:25;;;;;;;9.98;2.97;;;34.60;39.50;;;;;;5051756;28;20418;-77
2021/05/30 07:04:50;;;;;;;6.13;3.08;;;35.10;39.00;;;;;;5051443;28;20435;-78
2021/05/30 07:07:16;;;;;;;3.33;2.42;;;35.40;38.20;;;;;;5051239;28;20388;-77
2021/05/30 07:09:45;;;;;;;2.63;2.30;;;35.50;37.80;;;;;;5050983;28;20867;-78
2021/05/30 07:12:10;;;;;;;5.32;2.55;;;35.80;37.70;;;;;;5050986;28;20479;-77
2021/05/30 07:14:36;;;;;;;4.00;2.40;;;35.80;37.10;;;;;;5051415;28;20036;-77
2021/05/30 07:17:02;;;;;;;5.35;2.33;;;35.80;37.30;;;;;;5051386;28;20367;-78
2021/05/30 07:19:28;;;;;;;3.85;2.63;;;36.10;37.10;;;;;;5051441;28;20044;-78
2021/05/30 07:21:53;;;;;;;4.10;2.47;;;36.00;36.60;;;;;;5050019;28;20035;-78
2021/05/30 07:24:19;;;;;;;2.00;1.80;;;36.00;36.80;;;;;;5051006;28;20421;-79
2021/05/30 07:26:45;;;;;;;4.97;2.30;;;36.00;36.60;;;;;;5049598;28;20070;-78
2021/05/30 07:29:11;;;;;;;3.55;2.50;;;36.10;36.70;;;;;;5050610;28;20041;-79
2021/05/30 07:31:37;;;;;;;3.53;2.55;;;36.10;36.70;;;;;;5050568;28;20028;-77
2021/05/30 07:34:03;;;;;;;4.22;2.92;;;36.20;36.60;;;;;;5049646;28;20017;-77
2021/05/30 07:36:29;;;;;;;3.78;2.83;;;36.10;36.60;;;;;;5051046;28;20511;-76
2021/05/30 07:38:58;;;;;;;5.85;2.80;;;36.10;36.90;;;;;;5051166;28;20086;-76
2021/05/30 07:41:24;;;;;;;2.97;2.30;;;36.00;37.50;;;;;;5050921;28;20029;-76
2021/05/30 07:43:50;;;;;;;3.75;2.50;;;36.00;36.90;;;;;;5050963;28;20025;-76
2021/05/30 07:46:16;;;;;;;7.28;2.50;;;36.10;36.90;;;;;;5049338;28;20029;-77
2021/05/30 07:48:42;;;;;;;3.78;2.53;;;35.70;36.40;;;;;;5050271;28;20527;-77
2021/05/30 07:51:08;;;;;;;3.50;2.30;;;35.40;36.80;;;;;;5051000;28;20485;-77
2021/05/30 07:53:34;;;;;;;2.83;2.20;;;35.50;37.00;;;;;;5049742;28;20049;-77
2021/05/30 07:56:00;;;;;;;9.80;3.80;;;35.10;36.50;;;;;;5050972;28;20075;-76
2021/05/30 07:58:26;;;;;;;3.85;2.67;;;34.80;36.90;;;;;;5049089;28;20451;-77
2021/05/30 08:00:52;;;;;;;5.22;2.80;;;34.60;37.10;;;;;;5049501;28;20029;-77
2021/05/30 08:03:18;;;;;;;5.00;2.40;;;34.10;37.40;;;;;;5050693;28;20025;-76
2021/05/30 08:05:44;;;;;;;2.50;2.30;;;33.50;38.00;;;;;;5050759;28;20470;-78
2021/05/30 08:08:09;;;;;;;8.00;2.40;;;33.00;38.60;;;;;;5053112;28;20091;-76
2021/05/30 08:10:35;;;;;;;3.58;2.90;;;32.80;39.10;;;;;;5054252;28;20029;-76
2021/05/30 08:13:02;;;;;;;4.57;2.40;;;32.50;39.30;;;;;;5054037;28;20036;-76
2021/05/30 08:15:27;;;;;;;3.75;2.30;;;32.40;39.60;;;;;;5053845;28;20426;-76
2021/05/30 08:17:54;;;;;;;6.20;2.42;;;32.20;39.70;;;;;;5053945;28;20029;-77
2021/05/30 08:20:22;;;;;;;7.15;2.70;;;32.00;40.00;;;;;;5052984;28;20467;-77
2021/05/30 08:22:49;;;;;;;7.47;2.72;;;31.60;40.10;;;;;;5052636;28;20036;-77
2021/05/30 08:25:16;;;;;;;3.88;2.60;;;31.30;40.60;;;;;;5054057;28;20029;-77
2021/05/30 08:27:42;;;;;;;6.72;3.25;;;31.00;40.90;;;;;;5054509;28;20075;-78
2021/05/30 08:30:10;;;;;;;6.18;4.05;;;30.60;41.30;;;;;;5054119;28;20468;-78
2021/05/30 08:32:36;;;;;;;7.68;2.55;;;30.30;41.50;;;;;;5052519;28;20032;-77
2021/05/30 08:35:04;;;;;;;6.30;2.20;;;30.30;41.60;;;;;;5053919;28;20018;-76
2021/05/30 08:37:30;;;;;;;5.25;3.20;;;30.50;41.40;;;;;;5054747;28;20021;-77
2021/05/30 08:39:56;;;;;;;5.13;2.47;;;30.40;41.70;;;;;;5053526;28;20036;-76
2021/05/30 08:42:22;;;;;;;6.00;3.38;;;30.40;41.90;;;;;;5053994;28;20021;-77
2021/05/30 08:44:52;;;;;;;10.20;2.92;;;30.50;41.70;;;;;;5053608;28;20056;-77
2021/05/30 08:47:22;;;;;;;5.72;2.60;;;30.50;41.80;;;;;;5052363;28;20116;-77
2021/05/30 08:49:49;;;;;;;3.72;3.10;;;30.50;41.50;;;;;;5053512;28;20036;-79
2021/05/30 08:52:15;;;;;;;5.63;2.92;;;30.40;41.70;;;;;;5052334;28;20029;-77
2021/05/30 08:54:41;;;;;;;4.53;2.83;;;30.20;42.00;;;;;;5053548;28;20017;-76
2021/05/30 08:57:07;;;;;;;2.63;2.40;;;30.00;42.10;;;;;;5053520;28;20422;-78
2021/05/30 08:59:34;;;;;;;4.82;2.38;;;29.90;42.20;;;;;;5053103;28;20097;-78
2021/05/30 09:02:00;;;;;;;4.30;2.42;;;29.70;42.20;;;;;;5053673;28;20024;-76
2021/05/30 09:04:37;;;;;;;4.78;3.35;;;29.40;42.50;;;;;;5052579;28;20116;-79
2021/05/30 09:07:04;;;;;;;10.73;6.63;;;29.20;42.90;;;;;;5053971;28;20434;-78
2021/05/30 09:09:46;;;;;;;7.65;3.22;;;29.00;43.30;;;;;;5053270;28;20505;-79
2021/05/30 09:12:18;;;;;;;4.93;3.45;;;28.90;43.80;;;;;;5053457;28;20826;-78
2021/05/30 09:14:49;;;;;;;5.45;2.90;;;28.90;43.90;;;;;;5053041;28;20155;-78
2021/05/30 09:17:15;;;;;;;6.53;2.90;;;28.80;44.00;;;;;;5053608;28;20032;-81
2021/05/30 09:19:46;;;;;;;4.65;2.85;;;28.70;44.20;;;;;;5052843;28;20390;-81
2021/05/30 09:22:40;;;;;;;5.70;2.78;;;28.60;44.30;;;;;;5054394;28;20025;-81
2021/05/30 09:25:10;;;;;;;3.83;2.88;;;28.50;44.80;;;;;;5053961;28;20028;-82
2021/05/30 09:27:50;;;;;;;7.15;2.80;;;28.40;44.80;;;;;;5053303;28;20072;-82
2021/05/30 09:30:16;;;;;;;9.73;6.38;;;28.40;45.10;;;;;;5052399;28;20021;-81
2021/05/30 09:33:03;;;;;;;5.55;3.85;;;28.40;45.10;;;;;;5052554;28;20079;-82
2021/05/30 09:35:51;;;;;;;4.57;3.15;;;28.50;45.40;;;;;;5053862;28;20587;-81
2021/05/30 09:38:23;;;;;;;5.93;3.80;;;28.50;45.40;;;;;;5055013;28;20490;-81
2021/05/30 09:40:58;;;;;;;4.82;3.30;;;28.60;45.50;;;;;;5058630;28;20029;-81
2021/05/30 09:43:45;;;;;;;7.20;3.00;;;28.70;45.40;;;;;;5059099;28;20188;-81
2021/05/30 09:46:16;;;;;;;3.70;2.90;;;28.70;45.10;;;;;;5054127;28;20025;-84
2021/05/30 09:48:59;;;;;;;6.37;2.80;;;28.50;45.00;;;;;;5051901;28;20585;-80
2021/05/30 09:51:40;;;;;;;7.53;2.40;;;28.30;45.10;;;;;;5052619;28;20108;-80
2021/05/30 09:54:13;;;;;;;5.25;2.70;;;28.20;45.40;;;;;;5052547;28;20028;-80
2021/05/30 09:56:40;;;;;;;3.08;2.83;;;28.10;45.70;;;;;;5052917;28;20792;-80
2021/05/30 09:59:17;;;;;;;8.70;3.03;;;28.10;45.90;;;;;;5051236;28;20024;-81
2021/05/30 10:01:58;;;;;;;6.45;3.20;;;28.00;45.60;;;;;;5051230;28;20021;-80
2021/05/30 10:04:32;;;;;;;8.45;4.47;;;28.00;46.00;;;;;;5052223;28;20016;-80
2021/05/30 10:06:59;;;;;;;2.95;2.50;;;28.00;45.90;;;;;;5050639;28;20047;-80
2021/05/30 10:09:27;;;;;;;14.32;4.10;;;28.00;45.60;;;;;;5052011;28;20025;-80
2021/05/30 10:11:55;;;;;;;5.53;2.45;;;27.90;45.80;;;;;;5052123;28;20032;-79
2021/05/30 10:14:21;;;;;;;2.60;2.40;;;27.70;45.70;;;;;;5052325;28;20440;-79
2021/05/30 10:16:47;;;;;;;6.03;2.70;;;27.60;45.90;;;;;;5054278;28;20043;-83
2021/05/30 10:19:17;;;;;;;3.88;2.42;;;27.50;46.30;;;;;;5072262;28;20036;-88
2021/05/30 10:21:54;;;;;;;3.28;2.30;;;27.50;46.60;;;;;;5056359;28;20043;-84
2021/05/30 10:24:21;;;;;;;2.97;2.55;;;27.40;46.40;;;;;;5053719;28;20021;-83
2021/05/30 10:27:11;;;;;;;2.85;2.42;;;27.40;46.60;;;;;;5053165;28;20028;-86
2021/05/30 10:29:37;;;;;;;2.80;2.60;;;27.30;46.60;;;;;;5052233;28;20041;-82
2021/05/30 10:32:19;;;;;;;3.58;2.20;;;27.30;46.90;;;;;;5051498;28;20521;-86
2021/05/30 10:35:21;;;;;;;5.60;2.40;;;27.30;46.50;;;;;;5053218;28;20024;-83
2021/05/30 10:37:55;;;;;;;5.43;2.72;;;27.20;46.70;;;;;;5052120;28;20021;-83
2021/05/30 10:40:21;;;;;;;6.45;2.90;;;27.20;46.90;;;;;;5053077;28;20043;-85
2021/05/30 10:43:09;;;;;;;4.78;2.15;;;27.10;47.40;;;;;;5050998;28;20348;-80
2021/05/30 10:45:36;;;;;;;2.55;2.35;;;27.00;47.60;;;;;;5051926;28;20103;-84
2021/05/30 10:48:05;;;;;;;3.45;2.50;;;27.00;47.50;;;;;;5049967;28;20093;-82
2021/05/30 10:50:36;;;;;;;6.75;2.90;;;26.90;47.60;;;;;;5051504;28;20043;-80
2021/05/30 10:53:03;;;;;;;4.38;2.22;;;26.90;47.70;;;;;;5052574;28;20360;-83
2021/05/30 10:55:31;;;;;;;6.20;2.22;;;26.90;47.60;;;;;;5054031;28;20017;-83
2021/05/30 10:57:58;;;;;;;3.60;3.00;;;26.80;47.20;;;;;;5062303;28;20029;-84
2021/05/30 11:00:26;;;;;;;2.60;2.40;;;26.70;48.00;;;;;;5056408;28;20025;-82
2021/05/30 11:03:05;;;;;;;6.18;2.72;;;26.70;47.30;;;;;;5052195;28;20083;-83
2021/05/30 11:05:44;;;;;;;2.47;2.28;;;26.60;47.50;;;;;;5052093;28;20021;-83
2021/05/30 11:08:29;;;;;;;2.50;2.33;;;26.60;47.30;;;;;;5052429;28;20112;-83
2021/05/30 11:11:31;;;;;;;3.45;2.30;;;26.70;47.30;;;;;;5049885;28;20025;-81
2021/05/30 11:14:09;;;;;;;3.40;3.15;;;26.60;47.30;;;;;;5011464;28;20064;-74
2021/05/30 11:16:44;;;;;;;2.58;1.92;;;26.70;47.30;;;;;;5044509;28;20114;-75
2021/05/30 11:19:14;;;;;;;2.50;2.30;;;26.60;47.60;;;;;;5050334;28;20087;-73
2021/05/30 11:21:49;;;;;;;4.75;2.30;;;26.70;47.40;;;;;;5050490;28;20029;-75
2021/05/30 11:24:18;;;;;;;3.80;2.47;;;26.60;47.40;;;;;;5049003;28;20138;-75
2021/05/30 11:26:57;;;;;;;6.25;2.17;;;26.60;47.50;;;;;;5048931;28;20029;-73
2021/05/30 11:29:23;;;;;;;2.40;2.20;;;26.70;47.60;;;;;;5049897;28;20082;-76
2021/05/30 11:31:50;;;;;;;4.50;4.10;;;26.70;47.60;;;;;;5049978;28;20395;-77
2021/05/30 11:34:16;;;;;;;3.25;2.20;;;26.70;47.40;;;;;;5050244;28;20021;-76
2021/05/30 11:36:42;;;;;;;4.95;2.45;;;26.80;47.40;;;;;;5050413;28;20017;-76
2021/05/30 11:39:13;;;;;;;4.45;2.30;;;26.80;46.80;;;;;;5051072;28;20075;-76
2021/05/30 11:41:44;;;;;;;5.47;2.20;;;26.80;46.60;;;;;;5054341;28;20033;-76
2021/05/30 11:44:18;;;;;;;3.28;2.95;;;26.80;46.70;;;;;;5053954;28;20031;-76
2021/05/30 11:46:56;;;;;;;2.35;1.85;;;26.80;46.90;;;;;;5053977;28;20135;-78
2021/05/30 11:49:28;;;;;;;2.08;1.98;;;26.80;46.70;;;;;;5054462;28;20104;-77
2021/05/30 11:52:07;;;;;;;3.80;2.53;;;26.70;46.50;;;;;;5053782;28;20032;-79
2021/05/30 11:54:52;;;;;;;3.25;2.42;;;26.50;46.30;;;;;;5053923;28;20448;-78
2021/05/30 11:57:19;;;;;;;4.25;2.13;;;26.40;46.80;;;;;;5053350;28;20544;-79
2021/05/30 11:59:52;;;;;;;2.42;2.22;;;26.40;47.10;;;;;;5054819;28;20024;-86
2021/05/30 12:02:38;;;;;;;6.55;2.60;;;26.40;47.60;;;;;;5055542;28;20033;-86
2021/05/30 12:05:13;;;;;;;5.05;4.50;;;26.50;47.70;;;;;;5053915;28;20021;-86
2021/05/30 12:07:39;;;;;;;4.95;2.40;;;26.70;47.40;;;;;;5055243;28;20055;-85
2021/05/30 12:10:07;;;;;;;7.63;3.70;;;26.80;47.40;;;;;;5053629;28;20120;-87
2021/05/30 12:12:38;;;;;;;4.90;2.20;;;26.80;47.40;;;;;;5059719;28;20029;-87
2021/05/30 12:15:11;;;;;;;2.42;1.95;;;26.80;47.60;;;;;;5075671;28;20021;-85
2021/05/30 12:17:38;;;;;;;7.75;2.30;;;26.80;47.60;;;;;;5073795;28;20041;-86
2021/05/30 12:20:15;;;;;;;2.55;2.30;;;26.80;47.80;;;;;;5055887;28;20017;-86
2021/05/30 12:22:41;;;;;;;2.20;2.00;;;26.80;47.30;;;;;;5055517;28;20079;-85
2021/05/30 12:25:09;;;;;;;5.25;2.45;;;26.80;47.40;;;;;;5054381;28;20036;-85
2021/05/30 12:27:35;;;;;;;3.88;1.98;;;26.60;47.40;;;;;;5054411;28;20037;-85
2021/05/30 12:30:01;;;;;;;5.53;2.00;;;26.50;47.70;;;;;;5053170;28;20025;-82
2021/05/30 12:32:27;;;;;;;2.85;1.80;;;26.40;47.80;;;;;;5054412;28;20025;-82
2021/05/30 12:34:52;;;;;;;4.20;2.50;;;26.10;48.20;;;;;;5054108;28;20025;-82
2021/05/30 12:37:19;;;;;;;6.22;2.55;;;25.80;48.60;;;;;;5053963;28;20072;-82
2021/05/30 12:39:44;;;;;;;2.55;1.90;;;25.60;49.50;;;;;;5054271;28;20025;-82
2021/05/30 12:42:15;;;;;;;2.35;2.10;;;25.50;49.70;;;;;;5052586;28;20029;-82
2021/05/30 12:44:42;;;;;;;4.82;1.83;;;25.30;50.00;;;;;;5053941;28;20025;-82
2021/05/30 12:47:22;;;;;;;2.70;2.50;;;25.20;50.40;;;;;;5053199;28;20027;-79
2021/05/30 12:49:58;;;;;;;5.80;2.85;;;25.20;50.80;;;;;;5053134;28;20020;-78